Time;durP1;ratioP1;P1;durP2;ratioP2;P2;SDS_P1;SDS_P2;PMS_P1;PMS_P2;Temp;Humidity;BMP_temperature;BMP_pressure;BME280_temperature;BME280_humidity;BME280_pressure;Samples;Min_cycle;Max_cycle;Signal;HPM_P1;HPM_P2
2021/03/16 00:01:23;;;;;;;52.60;22.10;;;;;;;22.32;15.83;97335.88;5056581;28;20032;-83
2021/03/16 00:03:49;;;;;;;42.60;20.38;;;;;;;21.84;16.30;97341.53;5056785;28;20025;-83
2021/03/16 00:06:16;;;;;;;48.75;21.40;;;;;;;21.90;16.18;97342.56;5058228;28;20055;-83
2021/03/16 00:08:43;;;;;;;61.28;26.38;;;;;;;21.52;16.40;97333.88;5056214;28;20493;-83
2021/03/16 00:11:09;;;;;;;64.93;28.33;;;;;;;21.22;16.77;97351.72;5055941;28;20103;-83
2021/03/16 00:13:35;;;;;;;56.03;24.95;;;;;;;21.08;16.89;97352.03;5056877;28;20099;-84
2021/03/16 00:16:01;;;;;;;50.92;23.83;;;;;;;21.20;16.91;97347.78;5054006;28;20037;-83
2021/03/16 00:18:28;;;;;;;57.55;25.67;;;;;;;21.41;16.58;97343.72;5061298;28;20412;-83
2021/03/16 00:20:54;;;;;;;53.67;24.27;;;;;;;21.68;16.38;97341.50;5050843;28;20040;-83
2021/03/16 00:23:20;;;;;;;52.40;23.73;;;;;;;21.95;16.34;97350.44;5053742;28;20078;-83
2021/03/16 00:25:46;;;;;;;47.08;19.75;;;;;;;21.87;15.72;97344.22;5054436;28;20033;-83
2021/03/16 00:28:12;;;;;;;59.35;23.77;;;;;;;21.96;15.85;97349.22;5064156;28;20029;-83
2021/03/16 00:30:38;;;;;;;57.50;25.25;;;;;;;22.10;15.89;97336.88;5058498;28;20073;-83
2021/03/16 00:33:04;;;;;;;55.65;23.27;;;;;;;22.29;15.51;97345.13;5060479;28;20540;-83
2021/03/16 00:35:31;;;;;;;48.65;22.13;;;;;;;22.50;15.40;97344.56;5055067;28;20099;-83
2021/03/16 00:37:57;;;;;;;49.72;22.88;;;;;;;22.66;14.93;97352.19;5055872;28;20028;-83
2021/03/16 00:40:23;;;;;;;49.63;22.15;;;;;;;22.71;14.77;97351.63;5055844;28;20072;-83
2021/03/16 00:42:49;;;;;;;51.38;22.80;;;;;;;22.53;14.70;97346.50;5056235;28;20033;-85
2021/03/16 00:45:15;;;;;;;52.58;23.92;;;;;;;22.33;14.81;97354.25;5056207;28;20108;-85
2021/03/16 00:47:42;;;;;;;59.28;25.73;;;;;;;21.73;15.36;97352.13;5032693;28;20036;-85
2021/03/16 00:50:10;;;;;;;57.03;26.80;;;;;;;21.09;15.96;97355.59;5054841;28;20066;-86
2021/03/16 00:52:36;;;;;;;59.50;25.58;;;;;;;20.68;16.76;97358.78;5051322;28;20132;-85
2021/03/16 00:55:02;;;;;;;56.45;24.95;;;;;;;20.66;17.00;97361.22;5043673;28;20036;-86
2021/03/16 00:57:28;;;;;;;57.88;24.65;;;;;;;21.04;16.98;97354.09;5050656;28;20032;-85
2021/03/16 00:59:55;;;;;;;50.28;23.52;;;;;;;21.42;16.21;97348.09;5060354;28;20553;-85
2021/03/16 01:02:21;;;;;;;49.83;24.92;;;;;;;21.35;16.07;97343.47;5060185;28;20388;-85
2021/03/16 01:04:47;;;;;;;52.55;23.00;;;;;;;21.21;16.01;97343.78;5055991;28;20103;-85
2021/03/16 01:07:13;;;;;;;52.33;24.27;;;;;;;21.48;16.03;97343.56;5058373;28;20029;-85
2021/03/16 01:09:39;;;;;;;53.78;24.95;;;;;;;21.81;15.97;97348.75;5055370;28;20493;-85
2021/03/16 01:12:06;;;;;;;59.70;24.70;;;;;;;22.07;15.38;97340.56;5051623;28;20036;-85
2021/03/16 01:14:33;;;;;;;62.47;28.10;;;;;;;22.09;15.21;97338.88;5053104;28;20041;-85
2021/03/16 01:16:59;;;;;;;56.00;26.33;;;;;;;22.12;15.34;97343.63;5059721;28;20123;-85
2021/03/16 01:19:25;;;;;;;63.83;25.08;;;;;;;22.16;15.13;97338.72;5050608;28;20044;-85
2021/03/16 01:21:51;;;;;;;68.50;26.67;;;;;;;22.26;15.07;97334.84;5039017;28;20033;-84
2021/03/16 01:24:18;;;;;;;72.80;27.65;;;;;;;22.39;14.82;97332.09;5049448;28;20034;-85
2021/03/16 01:26:44;;;;;;;61.42;23.27;;;;;;;21.98;14.94;97327.19;5050863;28;20135;-85
2021/03/16 01:29:11;;;;;;;64.95;29.70;;;;;;;21.74;15.28;97332.16;5054557;28;20033;-84
2021/03/16 01:31:37;;;;;;;54.97;24.23;;;;;;;21.31;15.70;97337.16;5060013;28;20033;-84
2021/03/16 01:34:03;;;;;;;67.20;28.65;;;;;;;21.06;15.74;97331.34;5055432;28;20029;-84
2021/03/16 01:36:29;;;;;;;64.88;28.10;;;;;;;20.99;15.98;97331.47;5055097;28;20104;-84
2021/03/16 01:38:56;;;;;;;49.10;24.33;;;;;;;21.09;15.87;97334.06;5052383;28;20492;-84
2021/03/16 01:41:22;;;;;;;55.60;24.00;;;;;;;21.23;15.72;97330.97;5057805;28;20131;-85
2021/03/16 01:43:48;;;;;;;54.45;23.63;;;;;;;21.40;15.48;97325.41;5047497;28;20032;-84
2021/03/16 01:46:15;;;;;;;61.13;25.20;;;;;;;21.69;15.29;97326.28;5052137;28;20052;-85
2021/03/16 01:48:42;;;;;;;57.25;22.95;;;;;;;21.81;14.95;97329.19;5051046;28;20033;-85
2021/03/16 01:51:11;;;;;;;60.03;25.17;;;;;;;22.04;14.97;97331.03;5062720;28;20037;-85
2021/03/16 01:53:39;;;;;;;53.92;22.42;;;;;;;22.11;15.08;97330.06;5059131;28;20074;-85
2021/03/16 01:56:07;;;;;;;46.17;22.60;;;;;;;21.92;15.28;97337.31;5050043;28;20021;-85
2021/03/16 01:58:33;;;;;;;50.38;21.70;;;;;;;21.87;14.96;97335.84;5064016;28;20048;-87
2021/03/16 02:00:59;;;;;;;53.88;21.90;;;;;;;21.78;14.67;97332.84;5065310;28;20027;-87
2021/03/16 02:03:27;;;;;;;57.10;24.50;;;;;;;21.76;14.80;97331.72;5065799;28;20081;-87
2021/03/16 02:05:53;;;;;;;55.28;23.08;;;;;;;21.42;14.97;97331.34;5057897;28;20032;-87
2021/03/16 02:08:31;;;;;;;49.75;23.23;;;;;;;21.52;14.87;97336.66;5057961;28;20388;-87
2021/03/16 02:11:33;;;;;;;46.05;21.48;;;;;;;21.48;14.93;97332.38;5066519;28;20145;-86
2021/03/16 02:14:24;;;;;;;49.33;22.17;;;;;;;21.59;14.53;97335.69;5053617;28;20486;-86
2021/03/16 02:16:59;;;;;;;59.42;27.90;;;;;;;21.43;14.90;97330.09;5058615;28;20082;-86
2021/03/16 02:20:03;;;;;;;47.53;21.10;;;;;;;21.31;14.84;97339.94;5037739;28;20136;-86
2021/03/16 02:22:32;;;;;;;58.78;22.10;;;;;;;21.60;14.67;97335.28;5038754;28;20044;-85
2021/03/16 02:25:14;;;;;;;68.35;25.08;;;;;;;21.21;14.79;97344.53;5057067;28;20029;-85
2021/03/16 02:28:05;;;;;;;52.47;21.90;;;;;;;21.09;15.51;97345.22;5060435;28;20106;-86
2021/03/16 02:30:32;;;;;;;55.70;22.30;;;;;;;21.22;15.41;97342.53;5055228;28;20037;-87
2021/03/16 02:33:00;;;;;;;51.55;21.95;;;;;;;21.26;15.38;97346.81;5059786;28;20037;-86
2021/03/16 02:35:27;;;;;;;60.10;23.73;;;;;;;20.81;15.25;97345.78;5058627;28;20047;-87
2021/03/16 02:37:56;;;;;;;48.60;20.88;;;;;;;20.51;15.69;97346.00;5066425;28;20032;-86
2021/03/16 02:40:24;;;;;;;56.78;23.80;;;;;;;20.61;15.71;97351.34;5059407;28;20037;-86
2021/03/16 02:42:51;;;;;;;59.00;23.25;;;;;;;20.76;15.45;97351.88;5052005;28;20044;-85
2021/03/16 02:45:18;;;;;;;52.50;22.08;;;;;;;20.89;15.32;97352.78;5056614;28;20033;-85
2021/03/16 02:47:46;;;;;;;51.72;24.83;;;;;;;21.02;15.15;97353.72;5059172;28;20033;-84
2021/03/16 02:50:14;;;;;;;47.45;22.02;;;;;;;21.19;14.92;97349.78;5058600;28;20129;-83
2021/03/16 02:52:42;;;;;;;44.47;20.27;;;;;;;21.33;14.98;97355.03;5056404;28;20075;-86
2021/03/16 02:55:08;;;;;;;48.33;22.48;;;;;;;21.32;15.01;97353.50;5063861;28;20056;-83
2021/03/16 02:57:37;;;;;;;46.67;21.02;;;;;;;21.34;15.14;97353.84;5054221;28;20025;-83
2021/03/16 03:00:05;;;;;;;59.95;25.90;;;;;;;21.37;14.99;97360.56;5060207;28;20037;-85
2021/03/16 03:02:32;;;;;;;46.28;20.38;;;;;;;21.23;14.94;97366.47;5053521;28;20039;-83
2021/03/16 03:05:01;;;;;;;50.15;21.88;;;;;;;21.51;15.19;97359.44;5065113;28;20108;-83
2021/03/16 03:07:28;;;;;;;53.50;22.17;;;;;;;21.55;14.60;97355.34;5060940;28;20047;-82
2021/03/16 03:09:54;;;;;;;46.42;19.27;;;;;;;21.55;14.72;97355.34;5061182;28;20059;-85
2021/03/16 03:12:20;;;;;;;43.67;19.30;;;;;;;21.69;14.65;97359.81;5055546;28;20022;-83
2021/03/16 03:14:46;;;;;;;47.55;21.42;;;;;;;21.24;14.82;97357.66;5039100;28;20044;-83
2021/03/16 03:17:12;;;;;;;43.17;19.80;;;;;;;21.15;14.67;97363.03;5062071;28;20094;-83
2021/03/16 03:19:38;;;;;;;44.25;19.27;;;;;;;21.30;14.70;97360.72;5055086;28;20036;-83
2021/03/16 03:22:30;;;;;;;46.70;19.98;;;;;;;21.33;14.38;97369.00;5058172;28;20120;-82
2021/03/16 03:25:01;;;;;;;48.17;22.23;;;;;;;21.02;14.53;97373.25;5053439;28;20037;-83
2021/03/16 03:27:43;;;;;;;45.72;21.38;;;;;;;21.19;14.24;97376.94;5051948;28;20099;-83
2021/03/16 03:30:10;;;;;;;48.70;21.27;;;;;;;21.15;14.25;97379.00;5051681;28;20515;-83
2021/03/16 03:32:38;;;;;;;53.20;22.25;;;;;;;21.06;14.29;97376.78;5052391;28;20071;-83
2021/03/16 03:35:06;;;;;;;47.33;20.20;;;;;;;20.77;14.82;97378.53;5051349;28;23234;-83
2021/03/16 03:37:33;;;;;;;36.15;17.17;;;;;;;20.64;15.08;97372.81;5024422;28;20038;-83
2021/03/16 03:40:03;;;;;;;42.75;18.10;;;;;;;20.75;15.33;97372.59;5052089;28;20393;-83
2021/03/16 03:42:31;;;;;;;43.87;18.93;;;;;;;20.70;15.43;97375.13;5051643;28;20384;-83
2021/03/16 03:45:01;;;;;;;37.30;18.33;;;;;;;20.48;15.36;97369.16;5051868;28;20298;-83
2021/03/16 03:47:28;;;;;;;53.42;24.17;;;;;;;20.27;15.79;97375.91;5051566;28;20025;-83
2021/03/16 03:49:54;;;;;;;48.97;19.52;;;;;;;20.15;16.11;97375.69;5047145;28;20404;-84
2021/03/16 03:52:21;;;;;;;50.92;22.48;;;;;;;20.45;15.80;97379.16;5048209;28;21457;-84
2021/03/16 03:54:48;;;;;;;55.75;24.67;;;;;;;20.57;15.64;97372.97;5047956;28;20045;-84
2021/03/16 03:57:15;;;;;;;44.97;18.85;;;;;;;20.88;15.38;97381.13;5036963;28;20033;-84
2021/03/16 03:59:44;;;;;;;40.33;18.85;;;;;;;20.97;14.97;97375.75;5046146;28;20033;-84
2021/03/16 04:02:11;;;;;;;51.97;20.08;;;;;;;21.24;14.72;97377.19;5035517;28;20503;-84
2021/03/16 04:04:39;;;;;;;42.25;18.88;;;;;;;21.37;14.57;97388.50;5050968;28;20032;-84
2021/03/16 04:07:10;;;;;;;46.35;18.88;;;;;;;21.45;14.42;97384.31;5052186;28;20032;-84
2021/03/16 04:09:36;;;;;;;40.92;17.63;;;;;;;21.56;14.26;97384.06;5045542;28;20451;-84
2021/03/16 04:12:04;;;;;;;44.83;19.98;;;;;;;21.09;14.80;97392.69;5051504;28;20559;-84
2021/03/16 04:14:32;;;;;;;45.03;18.88;;;;;;;20.76;15.01;97392.91;5050352;28;20115;-84
2021/03/16 04:16:58;;;;;;;36.35;16.35;;;;;;;20.89;15.17;97394.63;5051163;28;20481;-84
2021/03/16 04:19:25;;;;;;;40.78;16.33;;;;;;;21.21;15.37;97402.41;5048429;28;20025;-85
2021/03/16 04:21:51;;;;;;;41.25;17.98;;;;;;;21.24;15.10;97399.53;5051399;28;20028;-85
2021/03/16 04:24:19;;;;;;;35.00;16.00;;;;;;;21.34;14.93;97406.09;5050944;28;20500;-84
2021/03/16 04:26:45;;;;;;;40.72;20.40;;;;;;;21.09;14.95;97403.06;5050884;28;20086;-86
2021/03/16 04:29:12;;;;;;;50.20;21.85;;;;;;;20.98;15.19;97399.66;5049743;28;20029;-86
2021/03/16 04:31:38;;;;;;;42.72;18.73;;;;;;;21.13;14.82;97401.75;5049599;28;20436;-85
2021/03/16 04:34:04;;;;;;;42.50;19.38;;;;;;;21.31;14.71;97402.16;5049194;28;20100;-85
2021/03/16 04:36:30;;;;;;;39.97;18.40;;;;;;;21.30;14.66;97399.81;5047422;28;20116;-86
2021/03/16 04:38:56;;;;;;;38.58;17.20;;;;;;;21.33;14.49;97410.13;5049570;28;20796;-86
2021/03/16 04:41:22;;;;;;;38.88;17.52;;;;;;;21.38;14.29;97408.81;5051695;28;20485;-86
2021/03/16 04:43:48;;;;;;;47.80;19.38;;;;;;;21.53;14.16;97410.88;5046117;28;20049;-86
2021/03/16 04:46:16;;;;;;;39.15;18.55;;;;;;;21.50;14.04;97414.53;5023593;28;20079;-86
2021/03/16 04:48:42;;;;;;;40.22;18.38;;;;;;;21.38;14.08;97415.19;5049122;28;20489;-88
2021/03/16 04:51:08;;;;;;;32.30;14.35;;;;;;;20.88;14.94;97401.44;5050394;28;20040;-85
2021/03/16 04:53:34;;;;;;;30.30;15.38;;;;;;;20.75;15.06;97408.09;5049565;28;20025;-84
2021/03/16 04:56:00;;;;;;;39.90;19.38;;;;;;;20.65;14.72;97412.66;5046784;28;20021;-85
2021/03/16 04:58:26;;;;;;;37.60;16.95;;;;;;;20.68;14.87;97415.38;5050123;28;20021;-85
2021/03/16 05:00:52;;;;;;;36.78;17.60;;;;;;;20.95;14.82;97415.25;5051482;28;20072;-86
2021/03/16 05:03:18;;;;;;;34.67;18.52;;;;;;;20.98;14.52;97417.19;5048932;28;20029;-86
2021/03/16 05:05:44;;;;;;;39.25;18.27;;;;;;;20.97;14.93;97417.63;5034284;28;20091;-87
2021/03/16 05:08:10;;;;;;;38.63;16.90;;;;;;;21.17;14.41;97424.00;5050424;28;20096;-86
2021/03/16 05:10:36;;;;;;;36.80;14.68;;;;;;;21.28;14.54;97419.78;5049815;28;20560;-86
2021/03/16 05:13:02;;;;;;;34.28;14.95;;;;;;;21.46;14.36;97422.19;5050878;28;20498;-85
2021/03/16 05:15:29;;;;;;;35.83;16.73;;;;;;;21.53;14.22;97424.84;5052009;28;20055;-84
2021/03/16 05:17:55;;;;;;;38.05;19.10;;;;;;;21.20;14.33;97421.16;5048640;28;20037;-85
2021/03/16 05:20:21;;;;;;;39.42;16.70;;;;;;;21.16;14.69;97431.63;5049411;28;20048;-84
2021/03/16 05:22:48;;;;;;;35.97;18.15;;;;;;;20.99;14.91;97429.94;5048533;28;20025;-85
2021/03/16 05:25:15;;;;;;;39.50;18.60;;;;;;;21.01;15.20;97433.06;5044404;28;20476;-86
2021/03/16 05:27:41;;;;;;;43.58;18.48;;;;;;;20.94;15.10;97438.00;5046889;28;20025;-87
2021/03/16 05:30:08;;;;;;;37.95;16.20;;;;;;;21.17;15.24;97430.38;5049614;28;20036;-87
2021/03/16 05:32:35;;;;;;;32.38;15.00;;;;;;;21.22;15.24;97438.25;5051649;28;20622;-87
2021/03/16 05:35:01;;;;;;;38.75;16.58;;;;;;;21.30;15.21;97438.91;5055599;28;20029;-86
2021/03/16 05:37:27;;;;;;;41.30;18.00;;;;;;;21.37;15.14;97440.75;5054672;28;20512;-85
2021/03/16 05:39:53;;;;;;;34.88;18.10;;;;;;;21.31;15.28;97446.03;5049233;28;20435;-85
2021/03/16 05:42:19;;;;;;;38.97;19.08;;;;;;;21.20;15.33;97439.91;5044119;28;20199;-85
2021/03/16 05:44:46;;;;;;;40.30;17.88;;;;;;;21.40;15.30;97446.25;5055566;28;20083;-85
2021/03/16 05:47:13;;;;;;;43.38;20.63;;;;;;;21.70;15.14;97446.00;5054251;28;20108;-86
2021/03/16 05:49:42;;;;;;;39.58;20.50;;;;;;;22.01;15.01;97454.88;5052299;28;20033;-86
2021/03/16 05:52:12;;;;;;;42.65;20.85;;;;;;;22.24;14.27;97454.72;5052382;28;20041;-85
2021/03/16 05:54:38;;;;;;;48.40;23.00;;;;;;;22.33;14.17;97449.34;5038348;28;20476;-85
2021/03/16 05:57:11;;;;;;;48.50;24.33;;;;;;;22.19;14.06;97455.28;5053610;28;20053;-84
2021/03/16 05:59:37;;;;;;;44.85;22.05;;;;;;;22.08;14.07;97460.31;5053128;28;20029;-85
2021/03/16 06:02:03;;;;;;;40.35;18.85;;;;;;;21.98;14.00;97461.38;5043911;28;20029;-87
2021/03/16 06:04:29;;;;;;;43.20;19.45;;;;;;;21.66;14.37;97466.84;5043195;28;20061;-89
2021/03/16 06:06:58;;;;;;;41.28;20.15;;;;;;;21.40;14.82;97470.63;5041835;28;20033;-87
2021/03/16 06:09:24;;;;;;;35.25;16.65;;;;;;;21.32;14.90;97467.97;5042374;28;20132;-88
2021/03/16 06:11:51;;;;;;;38.78;17.10;;;;;;;21.57;15.03;97473.03;5040908;28;20100;-87
2021/03/16 06:14:28;;;;;;;37.67;17.10;;;;;;;21.64;14.83;97472.88;5024986;28;20547;-87
2021/03/16 06:16:54;;;;;;;28.80;13.85;;;;;;;22.00;14.70;97470.09;5040673;28;20401;-87
2021/03/16 06:19:29;;;;;;;37.88;17.73;;;;;;;21.86;14.55;97479.59;5041444;28;20393;-85
2021/03/16 06:22:06;;;;;;;34.53;17.80;;;;;;;21.84;14.93;97473.63;5048031;28;20029;-84
2021/03/16 06:24:37;;;;;;;35.70;17.08;;;;;;;22.33;14.84;97470.91;5040174;28;20034;-86
2021/03/16 06:27:03;;;;;;;;;;;;;;;22.23;15.56;97478.34;5037025;28;20124;-86
2021/03/16 06:29:40;;;;;;;52.05;21.88;;;;;;;22.09;15.38;97478.69;5042346;28;19921;-84
2021/03/16 06:32:13;;;;;;;39.95;19.40;;;;;;;22.11;15.59;97481.81;5019936;28;20037;-84
2021/03/16 06:34:39;;;;;;;34.38;16.83;;;;;;;22.60;15.09;97488.22;5044227;28;20385;-84
2021/03/16 06:37:05;;;;;;;43.53;20.13;;;;;;;23.09;15.05;97486.94;5043232;28;20044;-85
2021/03/16 06:39:31;;;;;;;39.28;19.80;;;;;;;23.25;14.89;97480.50;5044739;28;20482;-86
2021/03/16 06:41:58;;;;;;;41.72;19.83;;;;;;;23.36;15.20;97495.03;5041334;28;20041;-85
2021/03/16 06:44:25;;;;;;;44.53;20.48;;;;;;;23.38;15.60;97488.97;5040324;28;20037;-85
2021/03/16 06:46:56;;;;;;;47.13;21.73;;;;;;;23.62;15.70;97490.28;5041144;28;20038;-88
2021/03/16 06:49:22;;;;;;;;;;;;;;;23.80;16.28;97501.75;5045035;28;20080;-88
2021/03/16 06:51:50;;;;;;;46.97;23.25;;;;;;;24.48;15.48;97504.81;5041562;28;19920;-87
2021/03/16 06:54:24;;;;;;;56.33;28.80;;;;;;;24.76;15.50;97502.31;5042416;28;20056;-88
2021/03/16 06:56:59;;;;;;;60.67;27.58;;;;;;;24.88;15.27;97513.53;5009123;28;20044;-89
2021/03/16 06:59:27;;;;;;;49.17;25.17;;;;;;;24.70;15.46;97510.50;5049908;28;20502;-87
2021/03/16 07:01:54;;;;;;;48.15;24.85;;;;;;;24.36;16.00;97514.06;5049678;28;20160;-87
2021/03/16 07:04:25;;;;;;;48.72;23.13;;;;;;;22.55;17.38;97517.50;5052296;28;20055;-87
2021/03/16 07:06:51;;;;;;;;;;;;;;;22.85;17.69;97515.59;5041546;28;20028;-87
2021/03/16 07:09:18;;;;;;;51.83;24.85;;;;;;;23.62;16.84;97515.50;5041746;28;19917;-88
2021/03/16 07:11:47;;;;;;;47.72;22.88;;;;;;;24.07;16.29;97521.78;5069501;28;20082;-88
2021/03/16 07:14:16;;;;;;;43.90;23.10;;;;;;;23.98;16.50;97519.59;5076814;28;20104;-89
2021/03/16 07:16:44;;;;;;;43.72;21.77;;;;;;;24.27;16.31;97525.13;5074711;28;20133;-83
2021/03/16 07:19:11;;;;;;;50.00;24.40;;;;;;;24.51;16.00;97525.59;5066579;28;20103;-83
2021/03/16 07:21:46;;;;;;;33.97;17.42;;;;;;;24.78;15.76;97522.34;5071580;28;20051;-85
2021/03/16 07:24:13;;;;;;;47.20;20.13;;;;;;;25.03;15.46;97523.06;5074831;28;20051;-84
2021/03/16 07:26:40;;;;;;;48.80;22.27;;;;;;;25.32;15.39;97526.44;5074259;28;20053;-84
2021/03/16 07:29:07;;;;;;;43.63;20.50;;;;;;;25.53;15.31;97527.72;5075939;28;20037;-84
2021/03/16 07:31:35;;;;;;;41.20;19.95;;;;;;;25.69;15.17;97538.00;5081746;28;20029;-83
2021/03/16 07:34:06;;;;;;;48.38;22.88;;;;;;;25.48;15.39;97535.97;5086267;28;20070;-83
2021/03/16 07:36:34;;;;;;;46.17;21.73;;;;;;;25.53;15.63;97541.78;5058083;28;20116;-86
2021/03/16 07:39:02;;;;;;;50.10;23.83;;;;;;;25.74;15.92;97552.22;5070200;28;20029;-85
2021/03/16 07:41:29;;;;;;;53.20;25.73;;;;;;;25.93;15.62;97545.47;5074808;28;20090;-86
2021/03/16 07:44:22;;;;;;;40.97;19.80;;;;;;;26.03;15.82;97551.97;5072635;28;20550;-84
2021/03/16 07:47:02;;;;;;;42.08;20.08;;;;;;;26.31;16.02;97547.28;5058088;28;20516;-86
2021/03/16 07:49:30;;;;;;;49.92;23.25;;;;;;;26.22;15.79;97555.69;5064690;28;20056;-84
2021/03/16 07:51:57;;;;;;;43.05;20.42;;;;;;;25.67;16.71;97555.31;5063712;28;20511;-87
2021/03/16 07:54:32;;;;;;;36.80;19.63;;;;;;;25.76;16.92;97558.22;5058771;28;20020;-85
2021/03/16 07:57:00;;;;;;;40.22;21.42;;;;;;;26.23;16.62;97557.25;5072419;28;20033;-85
2021/03/16 07:59:33;;;;;;;35.38;18.98;;;;;;;24.85;17.77;97556.59;5060774;28;20381;-88
2021/03/16 08:02:03;;;;;;;39.83;20.05;;;;;;;24.09;17.80;97561.38;5060858;28;20500;-87
2021/03/16 08:04:38;;;;;;;43.67;22.00;;;;;;;22.12;19.54;97567.28;5060330;28;20064;-87
2021/03/16 08:07:12;;;;;;;45.97;22.65;;;;;;;22.74;19.44;97568.25;5059748;28;20033;-88
2021/03/16 08:10:04;;;;;;;43.72;23.45;;;;;;;22.74;19.11;97562.66;5059560;28;20079;-88
2021/03/16 08:12:31;;;;;;;44.05;22.45;;;;;;;22.54;19.69;97574.66;5039504;28;20587;-88
2021/03/16 08:15:10;;;;;;;47.10;23.17;;;;;;;23.59;18.58;97575.25;5035589;28;20082;-88
2021/03/16 08:17:36;;;;;;;49.30;25.00;;;;;;;23.09;19.02;97561.75;5041907;28;20025;-88
2021/03/16 08:20:06;;;;;;;67.30;32.88;;;;;;;21.31;21.33;97580.88;5044071;28;20094;-88
2021/03/16 08:22:35;;;;;;;60.88;30.73;;;;;;;21.66;20.93;97581.38;5049311;28;20492;-90
2021/03/16 08:25:05;;;;;;;61.45;32.72;;;;;;;20.62;22.18;97580.84;5041670;28;20062;-88
2021/03/16 08:27:34;;;;;;;61.60;29.95;;;;;;;21.86;21.30;97588.59;5027307;28;20138;-86
2021/03/16 08:30:03;;;;;;;68.72;35.50;;;;;;;20.38;22.16;97587.59;5043119;28;20382;-87
2021/03/16 08:32:36;;;;;;;64.15;32.80;;;;;;;20.45;22.66;97587.50;5035402;28;20030;-86
2021/03/16 08:35:05;;;;;;;62.80;32.00;;;;;;;19.37;23.69;97594.03;5042859;28;20116;-87
2021/03/16 08:37:36;;;;;;;71.53;35.65;;;;;;;20.23;22.70;97594.59;5022318;28;20441;-86
2021/03/16 08:40:07;;;;;;;83.15;41.63;;;;;;;20.28;22.74;97591.34;5044150;28;20037;-87
2021/03/16 08:42:33;;;;;;;89.47;44.50;;;;;;;20.65;22.64;97582.81;5028358;28;20025;-86
2021/03/16 08:44:59;;;;;;;83.70;40.28;;;;;;;21.76;21.62;97588.78;5039560;28;20048;-86
2021/03/16 08:47:27;;;;;;;64.13;30.08;;;;;;;21.68;22.29;97584.56;5046656;28;20029;-88
2021/03/16 08:49:55;;;;;;;62.58;31.30;;;;;;;22.80;20.30;97588.91;5036875;28;20032;-86
2021/03/16 08:52:25;;;;;;;59.03;28.50;;;;;;;23.24;20.54;97590.97;5037450;28;20075;-86
2021/03/16 08:54:54;;;;;;;72.00;34.25;;;;;;;24.24;19.03;97587.78;5024835;28;20044;-86
2021/03/16 08:57:30;;;;;;;56.28;29.83;;;;;;;24.34;18.89;97591.50;5021276;28;20040;-90
2021/03/16 09:00:01;;;;;;;55.35;26.77;;;;;;;25.04;18.31;97591.25;5040864;28;20520;-94
2021/03/16 09:02:34;;;;;;;65.35;30.42;;;;;;;24.38;18.61;97583.75;5041216;28;20042;-94
2021/03/16 09:05:01;;;;;;;49.10;25.02;;;;;;;24.02;19.50;97590.38;5043529;28;20527;-94
2021/03/16 09:07:33;;;;;;;45.40;23.10;;;;;;;24.22;19.48;97595.84;5064199;28;20033;-96
2021/03/16 09:10:07;;;;;;;45.72;23.58;;;;;;;24.41;18.84;97591.28;5055687;28;20049;-95
2021/03/16 09:12:36;;;;;;;49.00;24.02;;;;;;;23.39;20.08;97589.38;5090152;28;20115;-96
2021/03/16 09:15:26;;;;;;;38.40;19.50;;;;;;;24.00;19.53;97592.84;5078082;28;20415;-96
2021/03/16 09:17:54;;;;;;;34.30;17.73;;;;;;;23.03;21.21;97591.53;5085027;28;20028;-96
2021/03/16 09:20:27;;;;;;;39.83;21.45;;;;;;;21.54;22.73;97599.56;5066041;28;20366;-92
2021/03/16 09:22:55;;;;;;;37.72;19.25;;;;;;;22.69;21.61;97598.34;5118590;28;20131;-96
2021/03/16 09:25:29;;;;;;;33.33;17.58;;;;;;;21.40;22.00;97590.69;5093218;28;20093;-96
2021/03/16 09:28:02;;;;;;;36.25;19.45;;;;;;;22.63;21.72;97597.28;5086230;28;20027;-96
2021/03/16 09:30:44;;;;;;;29.75;16.85;;;;;;;21.90;22.50;97600.50;5086889;28;20028;-96
2021/03/16 09:33:16;;;;;;;34.42;19.48;;;;;;;21.55;22.46;97603.97;5088849;28;20016;-95
2021/03/16 09:35:42;;;;;;;36.47;19.90;;;;;;;21.67;22.20;97603.31;5096938;28;20088;-96
2021/03/16 09:38:09;;;;;;;34.63;19.05;;;;;;;21.36;22.52;97604.72;5082257;28;20033;-96
2021/03/16 09:40:42;;;;;;;34.75;17.88;;;;;;;20.24;23.50;97612.88;5084069;28;20033;-96
2021/03/16 09:43:22;;;;;;;37.25;18.50;;;;;;;21.25;22.41;97604.94;5062903;28;20488;-96
2021/03/16 09:45:57;;;;;;;32.90;18.38;;;;;;;21.55;22.40;97609.53;5069005;28;20021;-93
2021/03/16 09:48:24;;;;;;;34.72;18.48;;;;;;;20.82;22.71;97608.84;5083057;28;20041;-96
2021/03/16 09:50:51;;;;;;;33.78;17.17;;;;;;;20.06;23.65;97613.13;5070343;28;20041;-96
2021/03/16 09:53:19;;;;;;;32.33;18.27;;;;;;;20.15;23.90;97613.38;5067142;28;20104;-95
2021/03/16 09:55:59;;;;;;;32.90;17.75;;;;;;;21.08;22.67;97614.41;5068349;28;20056;-96
2021/03/16 09:58:27;;;;;;;33.70;17.52;;;;;;;22.81;21.20;97613.66;5065450;28;20067;-96
2021/03/16 10:00:54;;;;;;;31.70;15.85;;;;;;;23.23;20.69;97609.78;5079348;28;20043;-96
2021/03/16 10:03:22;;;;;;;36.85;19.65;;;;;;;23.19;20.56;97609.09;5072208;28;20063;-96
2021/03/16 10:06:00;;;;;;;27.90;16.10;;;;;;;23.78;19.63;97602.34;5077234;28;20061;-96
2021/03/16 10:08:27;;;;;;;28.23;14.65;;;;;;;23.39;20.16;97614.59;5077498;28;20078;-96
2021/03/16 10:10:54;;;;;;;35.75;19.27;;;;;;;23.84;20.00;97603.34;5049651;28;20135;-95
2021/03/16 10:13:36;;;;;;;28.00;15.48;;;;;;;24.31;19.73;97610.00;5042258;28;20390;-93
2021/03/16 10:16:09;;;;;;;;;;;;;;;25.34;18.37;97615.91;5047058;28;20072;-95
2021/03/16 10:18:48;;;;;;;30.55;15.45;;;;;;;24.02;19.73;97604.41;5029072;28;20335;-94
2021/03/16 10:21:14;;;;;;;34.45;18.83;;;;;;;22.28;20.30;97628.03;5046277;28;20041;-95
2021/03/16 10:23:41;;;;;;;24.42;14.88;;;;;;;23.96;19.40;97611.81;5025098;28;20504;-93
2021/03/16 10:26:10;;;;;;;29.40;14.88;;;;;;;22.09;21.33;97615.66;5054058;28;20033;-94
2021/03/16 10:28:38;;;;;;;35.05;18.13;;;;;;;23.61;20.30;97596.00;5043717;28;20040;-94
2021/03/16 10:31:18;;;;;;;27.77;15.45;;;;;;;22.71;20.77;97614.69;5042140;28;20045;-92
2021/03/16 10:33:48;;;;;;;29.10;15.70;;;;;;;22.56;21.05;97614.22;5043092;28;20040;-95
2021/03/16 10:36:15;;;;;;;30.27;16.50;;;;;;;21.86;21.73;97607.38;5047650;28;20029;-94
2021/03/16 10:38:41;;;;;;;36.58;20.65;;;;;;;22.90;20.77;97599.81;5046016;28;20832;-95
2021/03/16 10:41:08;;;;;;;25.60;15.10;;;;;;;21.00;22.99;97592.59;5063260;28;20064;-96
2021/03/16 10:43:34;;;;;;;26.85;16.30;;;;;;;20.76;23.33;97605.75;5067668;28;20088;-96
2021/03/16 10:46:00;;;;;;;37.45;19.67;;;;;;;21.42;22.32;97603.03;5055212;28;20180;-93
2021/03/16 10:48:26;;;;;;;29.80;17.02;;;;;;;22.55;21.23;97607.03;5042405;28;20034;-95
2021/03/16 10:50:53;;;;;;;41.13;23.88;;;;;;;22.45;21.05;97605.25;5046113;28;20083;-94
2021/03/16 10:53:19;;;;;;;35.15;20.60;;;;;;;20.82;23.41;97601.25;5039650;28;20044;-96
2021/03/16 10:55:45;;;;;;;39.25;19.75;;;;;;;21.15;23.08;97605.09;5050583;28;20055;-95
2021/03/16 10:58:11;;;;;;;36.30;21.13;;;;;;;21.96;22.09;97592.41;5059352;28;20029;-91
2021/03/16 11:00:38;;;;;;;35.50;19.80;;;;;;;24.04;19.86;97592.72;5029999;28;20515;-93
2021/03/16 11:03:04;;;;;;;43.15;20.88;;;;;;;24.73;19.23;97579.81;5046037;28;20061;-96
2021/03/16 11:05:32;;;;;;;33.28;18.40;;;;;;;25.95;18.24;97587.25;5048132;28;20048;-92
2021/03/16 11:07:58;;;;;;;33.17;17.70;;;;;;;26.23;18.03;97583.38;5044241;28;20034;-94
2021/03/16 11:10:25;;;;;;;29.00;16.02;;;;;;;25.03;18.85;97600.91;5044858;28;20056;-94
2021/03/16 11:12:51;;;;;;;37.47;21.85;;;;;;;23.67;20.74;97594.22;5040355;28;20116;-94
2021/03/16 11:15:17;;;;;;;49.20;26.83;;;;;;;22.29;22.14;97607.22;5042737;28;20369;-96
2021/03/16 11:17:44;;;;;;;41.92;22.63;;;;;;;21.55;23.10;97603.16;5037186;28;20033;-96
2021/03/16 11:20:11;;;;;;;46.33;24.50;;;;;;;21.56;23.60;97601.97;5047320;28;20064;-93
2021/03/16 11:22:37;;;;;;;57.95;30.00;;;;;;;20.52;24.16;97596.53;5048271;28;20029;-95
2021/03/16 11:25:03;;;;;;;54.78;29.85;;;;;;;20.53;24.66;97594.56;5020171;28;20033;-95
2021/03/16 11:27:29;;;;;;;49.33;25.73;;;;;;;21.76;23.05;97611.13;5031596;28;20136;-95